Barberton, Ohio
Current Conditions -  °F | °C
As of 6:54 AM on Saturday 20 Dec 2014 (Local Time) from KAKR Reporting Station
Overcast Overcast  
Wind Chill: 29°   Ceiling: 2200
Heat Index: 29°   Visibility: 10mi
Dew Point: 20°   Wind: 3mph
Humidity: 69%   Direction: 30°NNE
Pressure: 30.26"   Gusts: NA
Location:  41.01°N, 81.61°W
Report Text: KAKR 201154Z AUTO 03003KT 10SM OVC022 M02/M07 A3026 RMK AO2 SLP258 T10171067 11017 21022 51003 $
Loading
Personal Weather Stations






























Interactive Weather Map New forecast layout! Learn more

10-Day Weather Forecast

Advertisements
Track Severe Weather on mobile